createdAt,value
2018-02-08T00:00:55.502Z,44.90
2018-02-08T00:03:23.368Z,45.40
2018-02-08T00:05:51.027Z,43.70
2018-02-08T00:08:19.148Z,42.70
2018-02-08T00:10:47.680Z,42.67
2018-02-08T00:13:15.325Z,44.53
2018-02-08T00:15:43.033Z,44.43
2018-02-08T00:18:10.866Z,44.47
2018-02-08T00:20:38.692Z,42.93
2018-02-08T00:23:06.356Z,45.47
2018-02-08T00:25:34.072Z,47.03
2018-02-08T00:28:01.753Z,44.90
2018-02-08T00:30:30.300Z,46.50
2018-02-08T00:32:58.571Z,42.87
2018-02-08T00:35:27.232Z,43.27
2018-02-08T00:37:54.942Z,43.23
2018-02-08T00:40:23.540Z,42.03
2018-02-08T00:42:51.978Z,44.13
2018-02-08T00:45:20.406Z,41.53
2018-02-08T00:47:48.850Z,44.73
2018-02-08T00:50:16.511Z,41.80
2018-02-08T00:52:44.265Z,46.00
2018-02-08T00:55:11.925Z,44.03
2018-02-08T00:57:39.593Z,43.97
2018-02-08T01:00:07.711Z,44.70
2018-02-08T01:02:36.964Z,44.47
2018-02-08T01:05:05.203Z,45.67
2018-02-08T01:07:33.099Z,42.37
2018-02-08T01:10:00.761Z,42.73
2018-02-08T01:12:28.522Z,46.30
2018-02-08T01:14:56.445Z,42.13
2018-02-08T01:17:24.388Z,46.07
2018-02-08T01:19:52.120Z,43.80
2018-02-08T01:22:19.801Z,44.63
2018-02-08T01:24:47.491Z,45.47
2018-02-08T01:27:15.957Z,46.37
2018-02-08T01:29:43.624Z,45.07
2018-02-08T01:32:11.454Z,47.13
2018-02-08T01:34:39.105Z,45.57
2018-02-08T01:37:07.745Z,42.63
2018-02-08T01:39:36.275Z,44.97
2018-02-08T01:42:04.304Z,45.80
2018-02-08T01:44:33.846Z,46.57
2018-02-08T01:47:01.550Z,43.97
2018-02-08T01:49:41.947Z,42.80
2018-02-08T01:52:09.605Z,43.47
2018-02-08T01:54:37.265Z,45.57
2018-02-08T01:57:04.956Z,47.80
2018-02-08T01:59:32.721Z,44.93
2018-02-08T02:02:00.376Z,44.93
2018-02-08T02:04:28.143Z,44.97
2018-02-08T02:06:56.016Z,42.43
2018-02-08T02:09:23.678Z,41.37
2018-02-08T02:11:51.384Z,44.27
2018-02-08T02:14:20.685Z,43.33
2018-02-08T02:16:49.089Z,45.87
2018-02-08T02:19:16.878Z,42.40
2018-02-08T02:21:44.572Z,45.50
2018-02-08T02:24:12.510Z,45.87
2018-02-08T02:26:40.184Z,44.60
2018-02-08T02:29:08.548Z,43.77
2018-02-08T02:31:36.415Z,43.67
2018-02-08T02:34:04.634Z,45.33
2018-02-08T02:36:32.454Z,41.37
2018-02-08T02:39:01.102Z,44.10
2018-02-08T02:41:29.828Z,45.47
2018-02-08T02:43:58.160Z,44.00
2018-02-08T02:46:26.832Z,42.90
2018-02-08T02:48:54.659Z,45.23
2018-02-08T02:51:22.670Z,42.63
2018-02-08T02:53:51.101Z,44.67
2018-02-08T02:56:18.855Z,43.30
2018-02-08T02:58:47.072Z,43.47
2018-02-08T03:01:15.489Z,45.43
2018-02-08T03:03:43.495Z,43.30
2018-02-08T03:06:12.627Z,43.83
2018-02-08T03:08:41.152Z,41.57
2018-02-08T03:11:09.121Z,43.67
2018-02-08T03:13:36.827Z,43.63
2018-02-08T03:16:06.091Z,39.07
2018-02-08T03:18:34.584Z,43.90
2018-02-08T03:21:02.944Z,43.70
2018-02-08T03:23:30.626Z,43.17
2018-02-08T03:25:59.899Z,43.53
2018-02-08T03:28:27.663Z,42.00
2018-02-08T03:30:59.934Z,40.70
2018-02-08T03:33:27.956Z,41.70
2018-02-08T03:35:56.380Z,42.40
2018-02-08T03:38:24.804Z,42.70
2018-02-08T03:40:53.255Z,42.17
2018-02-08T03:43:20.896Z,39.37
2018-02-08T03:45:48.766Z,41.70
2018-02-08T03:48:17.245Z,42.30
2018-02-08T03:50:45.726Z,35.77
2018-02-08T03:53:13.439Z,42.03
2018-02-08T03:55:41.970Z,35.90
2018-02-08T03:58:10.348Z,42.37
2018-02-08T04:00:38.595Z,41.30
2018-02-08T04:03:06.844Z,39.50
2018-02-08T04:05:35.480Z,41.67
2018-02-08T04:08:03.960Z,40.90
2018-02-08T04:10:32.132Z,39.93
2018-02-08T04:12:59.843Z,36.87
2018-02-08T04:15:28.679Z,41.43
2018-02-08T04:17:56.648Z,40.47
2018-02-08T04:20:24.348Z,41.30
2018-02-08T04:22:52.076Z,39.27
2018-02-08T04:25:19.840Z,38.87
2018-02-08T04:27:47.706Z,41.77
2018-02-08T04:30:15.571Z,40.33
2018-02-08T04:32:43.598Z,36.97
2018-02-08T04:35:11.805Z,37.10
2018-02-08T04:37:39.644Z,37.07
2018-02-08T04:40:19.821Z,37.00
2018-02-08T04:43:00.181Z,35.20
2018-02-08T04:45:42.505Z,38.23
2018-02-08T04:48:11.190Z,34.87
2018-02-08T04:50:38.840Z,39.63
2018-02-08T04:53:07.069Z,38.87
2018-02-08T04:55:36.153Z,38.83
2018-02-08T04:58:04.694Z,38.17
2018-02-08T05:00:32.353Z,34.30
2018-02-08T05:03:00.034Z,39.00
2018-02-08T05:05:27.883Z,37.70
2018-02-08T05:07:56.206Z,40.20
2018-02-08T05:10:24.938Z,40.17
2018-02-08T05:12:52.641Z,37.83
2018-02-08T05:15:20.284Z,39.77
2018-02-08T05:17:48.235Z,40.00
2018-02-08T05:20:18.810Z,39.13
2018-02-08T05:22:46.628Z,38.53
2018-02-08T05:25:14.700Z,38.77
2018-02-08T05:27:42.565Z,39.77
2018-02-08T05:30:10.273Z,35.17
2018-02-08T05:32:38.757Z,36.83
2018-02-08T05:35:07.221Z,37.43
2018-02-08T05:37:35.565Z,37.87
2018-02-08T05:40:03.330Z,38.70
2018-02-08T05:42:31.485Z,39.63
2018-02-08T05:44:59.913Z,34.63
2018-02-08T05:47:27.573Z,39.10
2018-02-08T05:49:55.405Z,40.57
2018-02-08T05:52:23.277Z,41.73
2018-02-08T05:54:51.549Z,40.27
2018-02-08T05:57:19.358Z,40.47
2018-02-08T05:59:47.812Z,39.80
2018-02-08T06:02:15.604Z,39.83
2018-02-08T06:04:44.137Z,40.37
2018-02-08T06:07:11.801Z,41.70
2018-02-08T06:09:39.663Z,38.83
2018-02-08T06:12:07.431Z,43.23
2018-02-08T06:14:35.292Z,38.03
2018-02-08T06:17:02.988Z,36.27
2018-02-08T06:19:32.193Z,38.70
2018-02-08T06:22:00.735Z,41.83
2018-02-08T06:24:28.528Z,41.17
2018-02-08T06:26:56.908Z,39.00
2018-02-08T06:29:24.644Z,39.33
2018-02-08T06:31:52.332Z,37.57
2018-02-08T06:34:20.170Z,38.50
2018-02-08T06:36:48.085Z,36.90
2018-02-08T06:39:16.444Z,35.67
2018-02-08T06:41:44.229Z,35.00
2018-02-08T06:44:12.715Z,38.40
2018-02-08T06:46:40.375Z,40.27
2018-02-08T06:49:08.099Z,37.60
2018-02-08T06:51:35.780Z,39.73
2018-02-08T06:54:04.432Z,39.43
2018-02-08T06:56:32.077Z,38.63
2018-02-08T06:58:59.961Z,39.10
2018-02-08T07:01:27.815Z,36.50
2018-02-08T07:03:56.203Z,38.63
2018-02-08T07:06:24.134Z,40.90
2018-02-08T07:08:52.190Z,39.87
2018-02-08T07:11:19.924Z,41.20
2018-02-08T07:13:47.625Z,40.83
2018-02-08T07:16:15.281Z,39.07
2018-02-08T07:18:43.172Z,39.60
2018-02-08T07:21:10.876Z,36.40
2018-02-08T07:23:38.708Z,39.13
2018-02-08T07:26:07.085Z,39.67
2018-02-08T07:28:35.088Z,38.90
2018-02-08T07:31:02.848Z,34.93
2018-02-08T07:33:30.583Z,34.90
2018-02-08T07:35:58.344Z,42.13
2018-02-08T07:38:26.716Z,37.67
2018-02-08T07:40:54.744Z,44.00
2018-02-08T07:43:23.519Z,41.20
2018-02-08T07:45:52.068Z,41.37
2018-02-08T07:48:20.690Z,41.67
2018-02-08T07:50:49.177Z,41.33
2018-02-08T07:53:17.705Z,40.97
2018-02-08T07:55:45.822Z,41.97
2018-02-08T07:58:14.414Z,41.17
2018-02-08T08:00:42.096Z,38.53
2018-02-08T08:03:09.988Z,38.40
2018-02-08T08:05:37.705Z,43.27
2018-02-08T08:08:06.180Z,35.63
2018-02-08T08:10:34.769Z,40.23
2018-02-08T08:13:03.432Z,42.13
2018-02-08T08:15:33.127Z,40.10
2018-02-08T08:18:01.586Z,41.37
2018-02-08T08:20:30.066Z,36.80
2018-02-08T08:22:57.930Z,41.63
2018-02-08T08:25:25.648Z,41.40
2018-02-08T08:27:54.441Z,40.50
2018-02-08T08:30:22.245Z,40.30
2018-02-08T08:32:52.816Z,39.07
2018-02-08T08:35:20.702Z,38.87
2018-02-08T08:37:48.426Z,41.20
2018-02-08T08:40:16.275Z,38.43
2018-02-08T08:42:44.031Z,33.33
2018-02-08T08:45:11.817Z,43.17
2018-02-08T08:47:40.217Z,38.40
2018-02-08T08:50:08.652Z,41.87
2018-02-08T08:52:36.445Z,40.13
2018-02-08T08:55:04.282Z,41.93
2018-02-08T08:57:32.045Z,42.80
2018-02-08T08:59:59.813Z,43.03
2018-02-08T09:02:27.677Z,42.30
2018-02-08T09:04:55.437Z,42.70
2018-02-08T09:07:24.105Z,42.67
2018-02-08T09:09:51.888Z,39.73
2018-02-08T09:12:19.660Z,40.70
2018-02-08T09:14:47.354Z,39.17
2018-02-08T09:17:15.801Z,40.27
2018-02-08T09:19:43.657Z,35.83
2018-02-08T09:22:11.521Z,37.57
2018-02-08T09:24:39.341Z,38.27
2018-02-08T09:27:07.975Z,34.47
2018-02-08T09:29:35.768Z,35.90
2018-02-08T09:32:34.151Z,34.37
2018-02-08T09:35:03.947Z,36.60
2018-02-08T09:37:32.630Z,32.17
2018-02-08T09:40:00.299Z,33.20
2018-02-08T09:42:28.065Z,33.50
2018-02-08T09:44:55.899Z,33.80
2018-02-08T09:47:24.569Z,35.77
2018-02-08T09:49:53.070Z,36.30
2018-02-08T09:52:21.342Z,30.93
2018-02-08T09:54:49.338Z,32.63
2018-02-08T09:57:18.656Z,31.90
2018-02-08T09:59:47.809Z,34.17
2018-02-08T10:02:15.649Z,31.70
2018-02-08T10:04:43.439Z,31.77
2018-02-08T10:07:11.205Z,29.83
2018-02-08T10:09:39.067Z,30.00
2018-02-08T10:12:06.736Z,30.73
2018-02-08T10:14:34.702Z,34.17
2018-02-08T10:17:02.363Z,30.87
2018-02-08T10:19:30.735Z,32.73
2018-02-08T10:21:58.530Z,33.23
2018-02-08T10:24:27.178Z,30.27
2018-02-08T10:26:54.866Z,32.00
2018-02-08T10:29:22.750Z,29.40
2018-02-08T10:31:51.287Z,29.93
2018-02-08T10:34:19.893Z,30.70
2018-02-08T10:36:47.548Z,26.87
2018-02-08T10:39:16.141Z,29.20
2018-02-08T10:41:44.826Z,29.00
2018-02-08T10:44:12.605Z,26.20
2018-02-08T10:46:41.688Z,24.37
2018-02-08T10:49:09.524Z,25.67
2018-02-08T10:51:37.285Z,24.17
2018-02-08T10:54:05.089Z,27.53
2018-02-08T10:56:33.678Z,26.87
2018-02-08T10:59:02.217Z,25.03
2018-02-08T11:01:30.613Z,26.00
2018-02-08T11:03:58.352Z,23.90
2018-02-08T11:06:26.426Z,25.27
2018-02-08T11:08:55.010Z,24.70
2018-02-08T11:11:23.522Z,24.30
2018-02-08T11:13:51.429Z,25.53
2018-02-08T11:16:19.322Z,24.77
2018-02-08T11:18:47.663Z,26.03
2018-02-08T11:21:15.361Z,29.57
2018-02-08T11:23:43.079Z,28.13
2018-02-08T11:26:10.791Z,24.50
2018-02-08T11:28:38.519Z,29.30
2018-02-08T11:31:06.552Z,29.07
2018-02-08T11:33:34.997Z,27.37
2018-02-08T11:36:03.019Z,27.07
2018-02-08T11:38:30.932Z,26.43
2018-02-08T11:40:59.338Z,25.10
2018-02-08T11:43:27.894Z,28.47
2018-02-08T11:45:56.271Z,25.93
2018-02-08T11:48:24.340Z,25.10
2018-02-08T11:50:52.779Z,23.30
2018-02-08T11:53:20.593Z,23.43
2018-02-08T11:55:48.352Z,22.93
2018-02-08T11:58:16.217Z,24.77
2018-02-08T12:00:44.218Z,21.90
2018-02-08T12:03:12.684Z,19.57
2018-02-08T12:08:15.386Z,23.60
2018-02-08T12:10:43.205Z,19.40
2018-02-08T12:13:10.883Z,20.10
2018-02-08T12:15:38.647Z,22.43
2018-02-08T12:18:06.627Z,20.70
2018-02-08T12:20:34.459Z,22.67
2018-02-08T12:23:02.271Z,22.03
2018-02-08T12:25:30.008Z,19.97
2018-02-08T12:27:57.815Z,22.50
2018-02-08T12:30:26.569Z,20.13
2018-02-08T12:32:54.634Z,18.80
2018-02-08T12:35:23.013Z,23.27
2018-02-08T12:37:50.648Z,22.60
2018-02-08T12:40:18.432Z,23.93
2018-02-08T12:42:46.105Z,23.30
2018-02-08T12:45:13.961Z,22.33
2018-02-08T12:47:41.756Z,22.47
2018-02-08T12:50:10.307Z,23.63
2018-02-08T12:52:38.170Z,24.53
2018-02-08T12:55:06.080Z,25.37
2018-02-08T12:57:34.725Z,21.83
2018-02-08T13:00:02.482Z,22.97
2018-02-08T13:02:30.246Z,21.80
2018-02-08T13:04:58.516Z,23.40
2018-02-08T13:07:26.173Z,22.80
2018-02-08T13:09:54.460Z,21.97
2018-02-08T13:12:22.875Z,23.33
2018-02-08T13:14:51.553Z,21.73
2018-02-08T13:17:19.495Z,23.83
2018-02-08T13:19:47.200Z,21.73
2018-02-08T13:22:15.127Z,21.77
2018-02-08T13:24:43.618Z,21.60
2018-02-08T13:27:13.110Z,21.07
2018-02-08T13:29:40.974Z,21.57
2018-02-08T13:32:08.711Z,20.97
2018-02-08T13:34:36.406Z,21.63
2018-02-08T13:37:04.098Z,20.47
2018-02-08T13:42:35.726Z,21.60
2018-02-08T13:45:04.216Z,23.17
2018-02-08T13:47:32.860Z,24.90
2018-02-08T13:50:00.623Z,21.30
2018-02-08T13:55:45.694Z,22.67
2018-02-08T13:58:20.818Z,23.77
2018-02-08T14:00:52.105Z,24.03
2018-02-08T14:03:19.972Z,25.53
2018-02-08T14:05:47.754Z,23.93
2018-02-08T14:08:15.997Z,24.07
2018-02-08T14:10:44.457Z,24.27
2018-02-08T14:13:12.990Z,25.30
2018-02-08T14:15:40.800Z,25.43
2018-02-08T14:18:09.851Z,25.13
2018-02-08T14:20:37.749Z,24.47
2018-02-08T14:23:05.633Z,24.13
2018-02-08T14:25:34.092Z,27.03
2018-02-08T14:28:02.757Z,24.60
2018-02-08T14:30:30.478Z,25.63
2018-02-08T14:32:58.270Z,25.50
2018-02-08T14:35:25.967Z,25.53
2018-02-08T14:37:53.644Z,27.10
2018-02-08T14:40:23.083Z,27.17
2018-02-08T14:42:50.795Z,25.53
2018-02-08T14:45:18.465Z,25.90
2018-02-08T14:47:47.727Z,27.87
2018-02-08T14:50:15.788Z,24.83
2018-02-08T14:52:43.808Z,26.73
2018-02-08T14:55:12.333Z,24.57
2018-02-08T14:57:40.204Z,22.73
2018-02-08T15:00:08.275Z,26.53
2018-02-08T15:02:36.041Z,27.23
2018-02-08T15:05:03.807Z,26.17
2018-02-08T15:07:31.846Z,25.83
2018-02-08T15:09:59.503Z,25.23
2018-02-08T15:12:27.298Z,23.20
2018-02-08T15:14:55.440Z,24.03
2018-02-08T15:17:23.939Z,22.70
2018-02-08T15:19:51.713Z,25.30
2018-02-08T15:22:19.440Z,21.43
2018-02-08T15:24:47.900Z,24.37
2018-02-08T15:27:18.203Z,20.60
2018-02-08T15:29:45.940Z,20.70
2018-02-08T15:32:13.704Z,21.23
2018-02-08T15:34:42.006Z,21.07
2018-02-08T15:37:10.666Z,21.37
2018-02-08T15:39:38.430Z,21.43
2018-02-08T15:42:06.302Z,22.10
2018-02-08T15:44:34.033Z,22.30
2018-02-08T15:47:01.821Z,20.90
2018-02-08T15:49:29.989Z,21.33
2018-02-08T15:51:58.234Z,21.53
2018-02-08T15:54:26.135Z,20.50
2018-02-08T15:56:54.103Z,19.03
2018-02-08T15:59:21.906Z,19.47
2018-02-08T16:01:49.628Z,20.33
2018-02-08T16:04:17.315Z,21.40
2018-02-08T16:06:45.157Z,22.80
2018-02-08T16:09:12.924Z,23.17
2018-02-08T16:11:40.695Z,22.17
2018-02-08T16:14:09.420Z,23.07
2018-02-08T16:16:38.006Z,22.03
2018-02-08T16:19:06.456Z,21.57
2018-02-08T16:21:34.113Z,22.47
2018-02-08T16:24:01.829Z,22.73
2018-02-08T16:26:29.616Z,24.27
2018-02-08T16:28:57.336Z,23.47
2018-02-08T16:31:26.227Z,22.37
2018-02-08T16:33:54.757Z,22.67
2018-02-08T16:36:23.643Z,23.23
2018-02-08T16:38:52.329Z,23.03
2018-02-08T16:41:20.582Z,21.37
2018-02-08T16:43:48.577Z,21.80
2018-02-08T16:46:17.314Z,22.27
2018-02-08T16:48:46.563Z,24.17
2018-02-08T16:51:14.353Z,23.33
2018-02-08T16:53:42.963Z,23.97
2018-02-08T16:56:11.765Z,24.10
2018-02-08T16:58:39.505Z,23.67
2018-02-08T17:01:07.927Z,28.83
2018-02-08T17:03:35.557Z,25.63
2018-02-08T17:06:03.315Z,24.27
2018-02-08T17:08:31.220Z,22.43
2018-02-08T17:10:58.985Z,24.63
2018-02-08T17:13:26.850Z,25.00
2018-02-08T17:15:54.551Z,24.60
2018-02-08T17:18:22.985Z,26.10
2018-02-08T17:20:50.792Z,27.43
2018-02-08T17:23:18.621Z,23.90
2018-02-08T17:25:46.382Z,22.77
2018-02-08T17:28:14.070Z,25.90
2018-02-08T17:30:43.346Z,25.73
2018-02-08T17:33:11.459Z,28.83
2018-02-08T17:35:39.865Z,24.17
2018-02-08T17:38:07.657Z,24.87
2018-02-08T17:40:35.416Z,27.00
2018-02-08T17:43:03.185Z,24.87
2018-02-08T17:45:31.005Z,29.33
2018-02-08T17:47:58.741Z,27.80
2018-02-08T17:50:26.576Z,26.80
2018-02-08T17:52:54.381Z,27.53
2018-02-08T17:55:23.036Z,25.90
2018-02-08T17:57:51.385Z,29.47
2018-02-08T18:00:19.173Z,26.10
2018-02-08T18:02:47.033Z,26.43
2018-02-08T18:05:15.809Z,35.83
2018-02-08T18:07:43.456Z,33.30
2018-02-08T18:10:11.288Z,34.63
2018-02-08T18:12:39.877Z,30.97
2018-02-08T18:15:08.290Z,29.87
2018-02-08T18:17:36.241Z,26.53
2018-02-08T18:20:04.113Z,29.00
2018-02-08T18:22:32.157Z,26.27
2018-02-08T18:25:00.794Z,26.77
2018-02-08T18:27:29.176Z,29.57
2018-02-08T18:29:57.000Z,28.50
2018-02-08T18:32:25.117Z,33.17
2018-02-08T18:34:52.925Z,31.33
2018-02-08T18:37:20.624Z,29.73
2018-02-08T18:39:48.499Z,29.33
2018-02-08T18:42:16.158Z,29.73
2018-02-08T18:44:43.867Z,29.13
2018-02-08T18:47:12.570Z,26.77
2018-02-08T18:49:40.234Z,28.50
2018-02-08T18:52:08.045Z,28.80
2018-02-08T18:54:35.897Z,29.53
2018-02-08T18:57:03.662Z,29.10
2018-02-08T18:59:32.168Z,28.97
2018-02-08T19:02:01.441Z,30.60
2018-02-08T19:04:29.203Z,28.43
2018-02-08T19:06:57.923Z,30.37
2018-02-08T19:09:25.574Z,34.87
2018-02-08T19:11:53.414Z,34.30
2018-02-08T19:14:22.101Z,33.93
2018-02-08T19:16:49.769Z,32.07
2018-02-08T19:19:17.882Z,28.00
2018-02-08T19:21:46.516Z,30.07
2018-02-08T19:24:14.381Z,27.03
2018-02-08T19:26:42.215Z,28.37
2018-02-08T19:29:09.870Z,29.23
2018-02-08T19:31:37.876Z,31.67
2018-02-08T19:34:05.858Z,32.17
2018-02-08T19:36:33.656Z,29.83
2018-02-08T19:39:02.106Z,29.03
2018-02-08T19:41:29.850Z,30.37
2018-02-08T19:43:58.226Z,25.77
2018-02-08T19:46:26.161Z,28.80
2018-02-08T19:48:54.064Z,27.50
2018-02-08T19:51:21.827Z,27.67
2018-02-08T19:53:49.490Z,28.63
2018-02-08T19:56:17.252Z,29.57
2018-02-08T19:58:44.947Z,29.70
2018-02-08T20:01:13.434Z,28.97
2018-02-08T20:03:42.701Z,28.73
2018-02-08T20:06:11.021Z,30.97
2018-02-08T20:08:40.066Z,28.60
2018-02-08T20:11:07.933Z,29.37
2018-02-08T20:13:36.646Z,28.03
2018-02-08T20:16:04.310Z,27.93
2018-02-08T20:18:32.868Z,27.93
2018-02-08T20:21:01.242Z,27.83
2018-02-08T20:23:29.807Z,27.43
2018-02-08T20:25:57.577Z,30.13
2018-02-08T20:28:25.521Z,29.03
2018-02-08T20:30:59.633Z,26.93
2018-02-08T20:33:27.348Z,27.57
2018-02-08T20:35:55.360Z,29.97
2018-02-08T20:38:23.490Z,30.53
2018-02-08T20:40:52.254Z,30.77
2018-02-08T20:43:26.427Z,30.10
2018-02-08T20:45:54.326Z,30.30
2018-02-08T20:48:22.038Z,27.90
2018-02-08T20:50:50.465Z,29.07
2018-02-08T20:53:18.860Z,33.67
2018-02-08T20:55:46.722Z,32.10
2018-02-08T20:58:15.295Z,28.60
2018-02-08T21:00:43.371Z,29.90
2018-02-08T21:03:11.537Z,28.90
2018-02-08T21:05:39.493Z,29.80
2018-02-08T21:08:07.336Z,28.50
2018-02-08T21:10:35.137Z,28.93
2018-02-08T21:13:02.897Z,31.13
2018-02-08T21:15:30.609Z,31.40
2018-02-08T21:17:59.226Z,30.10
2018-02-08T21:20:27.215Z,30.70
2018-02-08T21:22:54.937Z,31.23
2018-02-08T21:25:22.738Z,32.30
2018-02-08T21:27:50.431Z,32.10
2018-02-08T21:30:18.980Z,34.10
2018-02-08T21:32:47.352Z,34.27
2018-02-08T21:35:15.076Z,30.00
2018-02-08T21:37:43.642Z,31.10
2018-02-08T21:40:12.681Z,34.10
2018-02-08T21:42:40.358Z,33.63
2018-02-08T21:45:08.182Z,31.93
2018-02-08T21:47:35.855Z,33.87
2018-02-08T21:50:04.262Z,29.83
2018-02-08T21:52:32.108Z,32.43
2018-02-08T21:54:59.905Z,33.03
2018-02-08T21:57:28.307Z,33.07
2018-02-08T21:59:56.096Z,32.93
2018-02-08T22:02:24.003Z,29.87
2018-02-08T22:04:51.670Z,28.10
2018-02-08T22:07:20.167Z,31.13
2018-02-08T22:09:47.916Z,29.70
2018-02-08T22:12:15.602Z,32.40
2018-02-08T22:14:44.355Z,32.83
2018-02-08T22:17:12.018Z,32.43
2018-02-08T22:19:40.098Z,33.30
2018-02-08T22:22:07.880Z,30.90
2018-02-08T22:24:36.848Z,31.57
2018-02-08T22:27:04.614Z,31.77
2018-02-08T22:29:32.346Z,33.27
2018-02-08T22:32:00.031Z,31.27
2018-02-08T22:34:27.895Z,32.33
2018-02-08T22:36:55.964Z,31.13
2018-02-08T22:39:23.624Z,31.73
2018-02-08T22:41:51.289Z,32.17
2018-02-08T22:44:19.158Z,31.27
2018-02-08T22:46:46.903Z,31.00
2018-02-08T22:49:14.577Z,29.87
2018-02-08T22:51:42.289Z,29.73
2018-02-08T22:54:11.081Z,30.70
2018-02-08T22:56:41.041Z,32.40
2018-02-08T22:59:08.804Z,28.50
2018-02-08T23:01:36.495Z,29.27
2018-02-08T23:04:04.982Z,31.40
2018-02-08T23:06:33.529Z,31.50
2018-02-08T23:09:01.292Z,30.10
2018-02-08T23:11:29.059Z,29.30
2018-02-08T23:13:56.863Z,31.57
2018-02-08T23:16:25.413Z,32.47
2018-02-08T23:18:53.677Z,29.83
2018-02-08T23:21:21.374Z,31.93
2018-02-08T23:23:49.777Z,33.83
2018-02-08T23:26:17.500Z,30.20
2018-02-08T23:28:45.356Z,32.73
2018-02-08T23:31:13.069Z,30.63
2018-02-08T23:33:40.882Z,31.53
2018-02-08T23:36:11.327Z,28.83
2018-02-08T23:38:40.401Z,28.73
2018-02-08T23:41:08.109Z,30.37
2018-02-08T23:43:36.050Z,31.17
2018-02-08T23:46:03.783Z,28.50
2018-02-08T23:48:31.546Z,28.80
2018-02-08T23:50:59.439Z,29.10
2018-02-08T23:53:28.128Z,30.03
2018-02-08T23:55:56.477Z,28.47
2018-02-08T23:58:24.117Z,29.17
